createdAt,value
2023-05-05T00:01:50.288Z,5.22
2023-05-05T00:06:53.398Z,4.53
2023-05-05T00:11:56.281Z,7.93
2023-05-05T00:16:58.986Z,5.32
2023-05-05T00:22:01.858Z,4.95
2023-05-05T00:27:05.096Z,5.03
2023-05-05T00:32:08.222Z,3.83
2023-05-05T00:37:11.625Z,4.78
2023-05-05T00:42:14.382Z,4.57
2023-05-05T00:47:17.660Z,3.83
2023-05-05T00:52:20.533Z,3.83
2023-05-05T00:57:24.935Z,0.10
2023-05-05T01:02:28.207Z,0.00
2023-05-05T01:07:38.081Z,31.73
2023-05-05T01:12:58.808Z,0.82
2023-05-05T01:18:42.808Z,0.00
2023-05-05T01:24:03.600Z,0.00
2023-05-05T01:29:46.390Z,0.08
2023-05-05T01:34:58.901Z,0.00
2023-05-05T01:40:06.792Z,0.32
2023-05-05T01:45:12.099Z,0.10
2023-05-05T01:50:15.524Z,0.00
2023-05-05T01:55:20.117Z,0.35
2023-05-05T02:00:25.544Z,0.75
2023-05-05T02:05:30.213Z,0.00
2023-05-05T02:10:33.573Z,0.65
2023-05-05T02:15:38.683Z,0.05
2023-05-05T02:20:41.983Z,0.85
2023-05-05T02:25:49.401Z,0.10
2023-05-05T02:31:00.876Z,0.75
2023-05-05T02:36:22.154Z,1.75
2023-05-05T02:41:35.121Z,1.17
2023-05-05T02:46:43.715Z,0.00
2023-05-05T02:51:46.529Z,0.17
2023-05-05T02:57:01.346Z,2.00
2023-05-05T03:02:22.838Z,0.00
2023-05-05T03:07:31.132Z,0.00
2023-05-05T03:12:49.870Z,0.00
2023-05-05T03:17:59.900Z,0.10
2023-05-05T03:23:03.872Z,0.00
2023-05-05T03:28:08.107Z,0.00
2023-05-05T03:33:12.260Z,2.47
2023-05-05T03:38:17.008Z,2.58
2023-05-05T03:43:21.015Z,2.60
2023-05-05T03:48:24.352Z,2.70
2023-05-05T03:53:28.088Z,2.70
2023-05-05T03:58:31.298Z,3.95
2023-05-05T04:03:34.382Z,3.75
2023-05-05T04:08:37.651Z,3.75
2023-05-05T04:13:41.641Z,2.95
2023-05-05T04:18:44.758Z,3.33
2023-05-05T04:23:47.984Z,3.40
2023-05-05T04:28:50.716Z,3.28
2023-05-05T04:33:55.401Z,3.45
2023-05-05T04:38:58.159Z,8.05
2023-05-05T04:44:01.184Z,4.20
2023-05-05T04:49:05.346Z,3.38
2023-05-05T04:54:09.547Z,3.78
2023-05-05T04:59:12.401Z,3.55
2023-05-05T05:04:18.849Z,3.72
2023-05-05T05:09:21.714Z,3.72
2023-05-05T05:14:24.620Z,4.10
2023-05-05T05:19:27.458Z,3.55
2023-05-05T05:24:30.419Z,3.80
2023-05-05T05:29:33.264Z,4.20
2023-05-05T05:34:36.868Z,4.15
2023-05-05T05:39:43.510Z,4.10
2023-05-05T05:44:47.986Z,4.22
2023-05-05T05:49:51.859Z,4.63
2023-05-05T05:54:56.586Z,3.67
2023-05-05T06:00:01.942Z,4.18
2023-05-05T06:05:14.304Z,4.80
2023-05-05T06:10:26.460Z,4.93
2023-05-05T06:15:34.146Z,5.55
2023-05-05T06:20:38.971Z,4.90
2023-05-05T06:25:42.122Z,5.03
2023-05-05T06:30:44.719Z,4.93
2023-05-05T06:40:51.009Z,6.05
2023-05-05T06:45:54.115Z,5.05
2023-05-05T06:50:57.209Z,5.60
2023-05-05T06:55:59.946Z,4.78
2023-05-05T07:01:02.691Z,4.70
2023-05-05T07:06:05.477Z,4.47
2023-05-05T07:11:08.254Z,3.95
2023-05-05T07:16:11.143Z,4.55
2023-05-05T07:21:13.921Z,3.88
2023-05-05T07:26:16.829Z,4.22
2023-05-05T07:31:22.631Z,4.25
2023-05-05T07:36:25.631Z,3.55
2023-05-05T07:41:28.355Z,3.90
2023-05-05T07:46:31.122Z,3.85
2023-05-05T07:51:34.631Z,4.43
2023-05-05T07:56:37.929Z,3.55
2023-05-05T08:01:40.808Z,4.70
2023-05-05T08:06:43.666Z,3.25
2023-05-05T08:11:46.468Z,4.15
2023-05-05T08:16:49.340Z,3.78
2023-05-05T08:21:54.026Z,3.83
2023-05-05T08:26:57.160Z,4.40
2023-05-05T08:32:00.529Z,2.92
2023-05-05T08:37:03.432Z,3.67
2023-05-05T08:42:06.583Z,4.63
2023-05-05T08:47:11.400Z,3.53
2023-05-05T08:52:24.529Z,3.70
2023-05-05T08:57:56.760Z,3.80
2023-05-05T09:03:00.439Z,3.78
2023-05-05T09:08:08.458Z,3.53
2023-05-05T09:13:11.357Z,3.15
2023-05-05T09:23:21.243Z,3.63
2023-05-05T09:28:24.654Z,4.15
2023-05-05T09:33:31.933Z,3.60
2023-05-05T09:38:35.811Z,3.45
2023-05-05T09:43:55.500Z,2.88
2023-05-05T09:49:12.626Z,3.28
2023-05-05T09:54:29.399Z,3.10
2023-05-05T09:59:32.501Z,3.20
2023-05-05T10:04:36.380Z,2.72
2023-05-05T10:09:38.944Z,3.00
2023-05-05T10:19:46.060Z,3.35
2023-05-05T10:25:02.848Z,3.50
2023-05-05T10:30:08.218Z,2.88
2023-05-05T10:35:16.351Z,3.03
2023-05-05T10:40:22.722Z,2.55
2023-05-05T10:45:25.734Z,2.65
2023-05-05T10:50:42.047Z,2.30
2023-05-05T10:56:02.997Z,2.85
2023-05-05T11:01:09.457Z,2.30
2023-05-05T11:06:13.819Z,2.10
2023-05-05T11:11:16.590Z,2.85
2023-05-05T11:16:47.633Z,1.95
2023-05-05T11:22:09.089Z,2.42
2023-05-05T11:27:11.887Z,2.22
2023-05-05T11:37:24.602Z,2.58
2023-05-05T11:42:30.571Z,1.75
2023-05-05T11:47:35.287Z,2.58
2023-05-05T11:52:38.560Z,2.95
2023-05-05T11:57:41.610Z,2.88
2023-05-05T12:02:59.942Z,1.85
2023-05-05T12:08:03.159Z,1.60
2023-05-05T12:13:19.083Z,2.15
2023-05-05T12:18:30.716Z,2.30
2023-05-05T12:23:42.698Z,2.33
2023-05-05T12:28:58.419Z,2.65
2023-05-05T12:34:14.802Z,2.30
2023-05-05T12:39:26.241Z,2.10
2023-05-05T12:44:42.171Z,3.58
2023-05-05T12:49:55.157Z,2.63
2023-05-05T12:55:05.526Z,2.00
2023-05-05T13:00:18.577Z,10.93
2023-05-05T13:05:39.243Z,2.53
2023-05-05T13:11:00.933Z,2.60
2023-05-05T13:16:10.621Z,2.72
2023-05-05T13:21:17.156Z,2.13
2023-05-05T13:26:20.809Z,2.08
2023-05-05T13:31:24.820Z,2.28
2023-05-05T13:36:27.633Z,2.47
2023-05-05T13:41:30.599Z,2.22
2023-05-05T13:46:33.985Z,2.20
2023-05-05T13:52:05.917Z,2.88
2023-05-05T14:02:29.605Z,2.60
2023-05-05T14:07:33.130Z,2.95
2023-05-05T14:17:55.247Z,2.47
2023-05-05T14:23:01.494Z,2.83
2023-05-05T14:28:09.793Z,2.75
2023-05-05T14:33:19.275Z,2.70
2023-05-05T14:38:23.592Z,2.20
2023-05-05T14:48:49.857Z,2.80
2023-05-05T14:53:56.495Z,2.47
2023-05-05T14:59:00.191Z,2.97
2023-05-05T15:04:03.237Z,2.17
2023-05-05T15:09:07.110Z,3.50
2023-05-05T15:14:10.272Z,2.90
2023-05-05T15:19:12.978Z,2.67
2023-05-05T15:24:16.255Z,2.28
2023-05-05T15:29:18.977Z,3.03
2023-05-05T15:34:22.897Z,3.35
2023-05-05T15:39:25.813Z,3.00
2023-05-05T15:44:30.652Z,3.00
2023-05-05T15:49:38.912Z,3.08
2023-05-05T15:54:42.153Z,3.05
2023-05-05T15:59:45.125Z,2.60
2023-05-05T16:04:50.871Z,2.53
2023-05-05T16:09:55.339Z,3.10
2023-05-05T16:14:59.094Z,2.78
2023-05-05T16:20:01.999Z,4.32
2023-05-05T16:25:06.761Z,4.45
2023-05-05T16:30:14.038Z,6.15
2023-05-05T16:35:18.770Z,4.32
2023-05-05T16:40:22.815Z,5.47
2023-05-05T16:45:26.652Z,5.03
2023-05-05T16:50:29.671Z,4.07
2023-05-05T16:55:34.897Z,3.72
2023-05-05T17:00:38.026Z,4.90
2023-05-05T17:05:41.516Z,5.15
2023-05-05T17:10:45.872Z,11.77
2023-05-05T17:15:50.413Z,15.80
2023-05-05T17:20:54.021Z,12.23
2023-05-05T17:25:59.096Z,9.70
2023-05-05T17:31:04.639Z,9.50
2023-05-05T17:36:10.619Z,6.18
2023-05-05T17:41:14.554Z,5.80
2023-05-05T17:46:17.649Z,5.82
2023-05-05T17:51:20.678Z,5.53
2023-05-05T17:56:23.735Z,6.10
2023-05-05T18:01:28.156Z,5.47
2023-05-05T18:06:31.126Z,6.07
2023-05-05T18:11:35.513Z,6.35
2023-05-05T18:16:38.517Z,5.45
2023-05-05T18:26:50.780Z,5.60
2023-05-05T18:31:55.037Z,7.07
2023-05-05T18:36:57.969Z,7.03
2023-05-05T18:42:00.879Z,7.30
2023-05-05T18:47:03.863Z,7.65
2023-05-05T18:52:06.856Z,6.00
2023-05-05T18:57:09.494Z,6.53
2023-05-05T19:02:12.216Z,5.90
2023-05-05T19:07:24.099Z,6.10
2023-05-05T19:12:30.908Z,7.15
2023-05-05T19:17:33.707Z,7.03
2023-05-05T19:22:37.006Z,9.40
2023-05-05T19:27:39.886Z,9.68
2023-05-05T19:32:42.644Z,9.80
2023-05-05T19:37:46.216Z,9.73
2023-05-05T19:42:49.251Z,11.10
2023-05-05T19:47:52.845Z,10.05
2023-05-05T19:52:55.896Z,24.85
2023-05-05T19:57:58.657Z,10.73
2023-05-05T20:03:02.377Z,16.05
2023-05-05T20:08:06.008Z,12.52
2023-05-05T20:13:08.971Z,10.93
2023-05-05T20:18:11.771Z,11.63
2023-05-05T20:23:14.607Z,10.48
2023-05-05T20:28:17.486Z,12.48
2023-05-05T20:33:20.313Z,11.63
2023-05-05T20:38:23.232Z,11.85
2023-05-05T20:43:26.093Z,11.15
2023-05-05T20:48:30.075Z,11.95
2023-05-05T20:53:33.397Z,11.30
2023-05-05T20:58:36.644Z,11.95
2023-05-05T21:03:39.538Z,11.95
2023-05-05T21:08:42.297Z,11.32
2023-05-05T21:13:44.963Z,12.23
2023-05-05T21:18:47.714Z,12.38
2023-05-05T21:23:50.388Z,12.80
2023-05-05T21:28:53.372Z,11.90
2023-05-05T21:33:56.233Z,12.60
2023-05-05T21:39:00.359Z,12.93
2023-05-05T21:44:03.351Z,17.63
2023-05-05T21:49:16.979Z,14.05
2023-05-05T21:54:19.703Z,15.82
2023-05-05T21:59:22.400Z,15.25
2023-05-05T22:04:25.097Z,15.60
2023-05-05T22:09:28.055Z,14.88
2023-05-05T22:14:31.025Z,14.38
2023-05-05T22:19:33.805Z,12.93
2023-05-05T22:24:36.611Z,14.15
2023-05-05T22:29:39.472Z,14.35
2023-05-05T22:34:42.330Z,14.10
2023-05-05T22:39:45.168Z,12.18
2023-05-05T22:44:48.042Z,12.85
2023-05-05T22:49:51.095Z,12.70
2023-05-05T22:54:53.796Z,11.95
2023-05-05T22:59:56.637Z,11.27
2023-05-05T23:04:59.268Z,12.82
2023-05-05T23:10:02.399Z,9.48
2023-05-05T23:15:06.547Z,11.38
2023-05-05T23:20:12.295Z,11.88
2023-05-05T23:25:15.383Z,14.45
2023-05-05T23:30:18.540Z,10.38
2023-05-05T23:35:21.702Z,12.25
2023-05-05T23:40:24.555Z,9.93
2023-05-05T23:45:27.391Z,10.93
2023-05-05T23:50:30.608Z,9.73
2023-05-05T23:55:33.405Z,9.38
